Das ist die Wetter- und Hausseite der Bittkau's aus Magdeburg Ottersleben


Hier werden aktuelle Daten aus der privaten Wetterstation und

andere lokale Wettervorhersagen bereitgestellt




Thunder radar more information blitzortung!


Rain radar more information rain snow radar



Es ist keine erhöhte Aufmerksamkeit aufgrund des Wetters notwendig.    Es gibt keine Warnungen.

METAR-Meldungen aus der Umgebung

   
EDDP - Leipzig
Aktualisierung: 21.07.2019 9:20
Klar  
Klar  
   Wind: NW 11.1 km/h
Wind: NW 11.1 km/h
Temperatur: 22°C
Taupunkt: 11°C
Luftfeuchte: 50%
Luftdruck: 1021 hPa
Sichtbarkeit: More than 10 km
Bewölkung: Klar
EDDP 211920Z 31006KT CAVOK 22/11 Q1021 NOSIG
EDDC - Dresden
Aktualisierung: 21.07.2019 9:20
Klar  
Klar  
   Wind: NNW 3.7 km/h
Wind: NNW 3.7 km/h
Temperatur: 22°C
Taupunkt: 12°C
Luftfeuchte: 53%
Luftdruck: 1021 hPa
Sichtbarkeit: More than 10 km
Bewölkung: Klar
EDDC 211920Z 33002KT CAVOK 22/12 Q1021 NOSIG
EDDE - Erfurt
Aktualisierung: 21.07.2019 9:20
Klar  
Klar  
   Wind: NW 11.1 km/h
Wind: NW 11.1 km/h
Temperatur: 20°C
Taupunkt: 12°C
Luftfeuchte: 60%
Luftdruck: 1022 hPa
Sichtbarkeit: More than 10 km
Bewölkung: Klar
EDDE 211920Z 32006KT CAVOK 20/12 Q1022 NOSIG
EDVE - Braunschweig
Aktualisierung: 21.07.2019 8:20
Nicht aktuell
Klar  
Klar  
   Wind: NW 14.8 km/h
Wind: NW 14.8 km/h
Temperatur: 23°C
Taupunkt: 11°C
Luftfeuchte: 47%
Luftdruck: 1021 hPa
Sichtbarkeit: More than 10 km
Bewölkung: Klar
EDVE 211820Z 31008KT CAVOK 23/11 Q1021
EDDV - Hannover
Aktualisierung: 21.07.2019 9:20
Klar  
Klar  
   Wind: NW 7.4 km/h
Wind: NW 7.4 km/h
Temperatur: 20°C
Taupunkt: 11°C
Luftfeuchte: 56%
Luftdruck: 1021 hPa
Sichtbarkeit: More than 10 km
Bewölkung: Klar
EDDV 211920Z 31004KT CAVOK 20/11 Q1021 NOSIG
EDDT - Berlin
Aktualisierung: 21.07.2019 9:20
Klar  
Klar  
   Wind: WNW 3.7 km/h
Wind: WNW 3.7 km/h
Temperatur: 23°C
Taupunkt: 12°C
Luftfeuchte: 50%
Luftdruck: 1020 hPa
Sichtbarkeit: More than 10 km
Bewölkung: Klar
EDDT 211920Z 29002KT CAVOK 23/12 Q1020 NOSIG
EDDE - Schwerin
Aktualisierung: 21.07.2019 9:20
Klar  
Klar  
   Wind: NW 11.1 km/h
Wind: NW 11.1 km/h
Temperatur: 20°C
Taupunkt: 12°C
Luftfeuchte: 60%
Luftdruck: 1022 hPa
Sichtbarkeit: More than 10 km
Bewölkung: Klar
EDDE 211920Z 32006KT CAVOK 20/12 Q1022 NOSIG
EDHI - Hamburg
Aktualisierung: 21.07.2019 9:20
Klar  
Klar  
   Wind: WNW 14.8 km/h
Wind: WNW 14.8 km/h
Temperatur: 19°C
Taupunkt: 12°C
Luftfeuchte: 64%
Luftdruck: 1021 hPa
Bewölkt: Klar
Sichtbarkeit: More than 10 km
Bewölkung: Klar
EDHI 211920Z AUTO 30008KT 270V330 9999 // NCD 19/12 Q1021
EDDK - Köln-Bonn
Aktualisierung: 21.07.2019 9:20
Klar  
Klar  
   Wind: NNO 5.6 km/h
Wind: NNO 5.6 km/h
Temperatur: 21°C
Taupunkt: 13°C
Luftfeuchte: 60%
Luftdruck: 1022 hPa
Sichtbarkeit: More than 10 km
Bewölkung: Klar
EDDK 211920Z 02003KT 350V060 CAVOK 21/13 Q1022 NOSIG
EDHL - Lübeck-Blankensee
Aktualisierung: 21.07.2019 8:50
leicht bewölkt  
leicht bewölkt  
   Wind: Westen 9.3 km/h
Wind: Westen 9.3 km/h
Temperatur: 19°C
Taupunkt: 12°C
Luftfeuchte: 64%
Luftdruck: 1021 hPa
Bewölkt: leicht bewölkt
Sichtbarkeit: More than 10 km
Bewölkung: leicht bewölkt 1066.8 m
EDHL 211850Z 28005KT 240V330 9999 FEW035 19/12 Q1021
  

Script entwickelt von  Saratoga-weather.org Angepasst für das Template von  Weerstation Leuven

Sie finden die Wetterinfo auch auf:

Wetternetzwerk Deutschland

European Weather Network

Weather Underground

Regionalwetter-SA

wetter.com

wxforum.de

Genutzte Hardware, Software und WEB Anbieter:

Wetterstation
Ventus W928-Ultimate

Wetterprogramm
Meteohub

WetterComputer
RaspberryPI

Anbieter
WEB Provider One.com

Ventus W928-Ultimate

Meteohub

RaspberryPI

WEB Provider One.com